Time;durP1;ratioP1;P1;durP2;ratioP2;P2;SDS_P1;SDS_P2;PMS_P1;PMS_P2;Temp;Humidity;BMP_temperature;BMP_pressure;BME280_temperature;BME280_humidity;BME280_pressure;Samples;Min_cycle;Max_cycle;Signal;HPM_P1;HPM_P2
2021/10/25 00:00:20;;;;;;;7.93;2.28;;;;;;;;;;5135632;27;21162;-72
2021/10/25 00:02:46;;;;;;;8.45;1.95;;;;;;;;;;5131187;27;20198;-72
2021/10/25 00:05:12;;;;;;;6.65;1.63;;;;;;;;;;5136735;27;20113;-72
2021/10/25 00:07:39;;;;;;;9.23;2.08;;;;;;;;;;5134401;27;20483;-72
2021/10/25 00:10:06;;;;;;;3.78;1.77;;;;;;;;;;5134697;27;20027;-72
2021/10/25 00:12:32;;;;;;;7.20;1.65;;;;;;;;;;5135045;27;20026;-72
2021/10/25 00:14:59;;;;;;;6.35;1.75;;;;;;;;;;5134601;27;20507;-72
2021/10/25 00:17:25;;;;;;;4.55;1.55;;;;;;;;;;5134630;27;20054;-72
2021/10/25 00:19:51;;;;;;;7.43;1.88;;;;;;;;;;5134748;27;20015;-72
2021/10/25 00:22:18;;;;;;;10.57;2.17;;;;;;;;;;5133858;27;20027;-72
2021/10/25 00:24:44;;;;;;;9.32;2.50;;;;;;;;;;5134898;27;20049;-72
2021/10/25 00:27:11;;;;;;;9.00;2.00;;;;;;;;;;5136337;27;20031;-72
2021/10/25 00:29:38;;;;;;;7.30;1.80;;;;;;;;;;5132480;27;20380;-72
2021/10/25 00:32:04;;;;;;;8.23;2.10;;;;;;;;;;5133241;27;20394;-72
2021/10/25 00:34:30;;;;;;;9.68;2.30;;;;;;;;;;5135465;27;20140;-72
2021/10/25 00:37:02;;;;;;;9.05;2.28;;;;;;;;;;5133077;27;20037;-72
2021/10/25 00:39:28;;;;;;;7.40;2.00;;;;;;;;;;5133300;27;20026;-72
2021/10/25 00:41:54;;;;;;;7.13;1.88;;;;;;;;;;5135935;27;20033;-72
2021/10/25 00:44:21;;;;;;;6.75;1.92;;;;;;;;;;5135970;27;20035;-72
2021/10/25 00:46:47;;;;;;;10.63;2.28;;;;;;;;;;5134770;27;20514;-72
2021/10/25 00:49:13;;;;;;;4.78;1.85;;;;;;;;;;5134190;27;20037;-72
2021/10/25 00:51:39;;;;;;;10.07;1.63;;;;;;;;;;5134569;27;20023;-72
2021/10/25 00:54:06;;;;;;;10.68;1.85;;;;;;;;;;5133907;27;20027;-72
2021/10/25 00:56:35;;;;;;;5.78;1.80;;;;;;;;;;5133470;27;20030;-72
2021/10/25 00:59:02;;;;;;;6.97;1.70;;;;;;;;;;5129998;27;20033;-72
2021/10/25 01:01:28;;;;;;;10.32;3.05;;;;;;;;;;5133265;27;20118;-72
2021/10/25 01:03:54;;;;;;;7.03;1.80;;;;;;;;;;5133718;27;20408;-72
2021/10/25 01:06:20;;;;;;;5.68;1.85;;;;;;;;;;5134454;27;20026;-72
2021/10/25 01:08:47;;;;;;;7.28;2.13;;;;;;;;;;5132447;27;20061;-72
2021/10/25 01:11:13;;;;;;;9.52;2.42;;;;;;;;;;5133662;27;20026;-72
2021/10/25 01:13:39;;;;;;;7.93;2.60;;;;;;;;;;5135144;27;20467;-72
2021/10/25 01:16:06;;;;;;;9.55;2.00;;;;;;;;;;5130538;27;20033;-72
2021/10/25 01:18:32;;;;;;;8.00;2.10;;;;;;;;;;5134346;27;20030;-72
2021/10/25 01:20:59;;;;;;;4.88;2.05;;;;;;;;;;5134255;27;20386;-72
2021/10/25 01:23:25;;;;;;;7.75;2.42;;;;;;;;;;5132600;27;20117;-73
2021/10/25 01:25:51;;;;;;;8.32;2.35;;;;;;;;;;5134722;27;20323;-72
2021/10/25 01:28:17;;;;;;;14.45;2.72;;;;;;;;;;5134612;27;20023;-72
2021/10/25 01:30:44;;;;;;;7.90;2.38;;;;;;;;;;5130428;27;20421;-72
2021/10/25 01:33:17;;;;;;;8.93;2.22;;;;;;;;;;5134165;27;20023;-72
2021/10/25 01:35:44;;;;;;;9.55;2.45;;;;;;;;;;5134700;27;20398;-72
2021/10/25 01:38:10;;;;;;;10.48;2.30;;;;;;;;;;5130857;27;20027;-72
2021/10/25 01:40:36;;;;;;;10.88;2.45;;;;;;;;;;5133951;27;20110;-72
2021/10/25 01:43:03;;;;;;;13.35;3.20;;;;;;;;;;5134312;27;20023;-73
2021/10/25 01:45:30;;;;;;;12.82;2.33;;;;;;;;;;5135485;27;20030;-72
2021/10/25 01:47:57;;;;;;;13.43;2.30;;;;;;;;;;5131400;27;20439;-72
2021/10/25 01:50:24;;;;;;;8.60;2.33;;;;;;;;;;5132793;27;20065;-72
2021/10/25 01:52:50;;;;;;;5.95;2.28;;;;;;;;;;5133235;27;20019;-72
2021/10/25 01:55:16;;;;;;;9.93;2.20;;;;;;;;;;5132419;27;20070;-72
2021/10/25 01:57:43;;;;;;;15.27;2.47;;;;;;;;;;5132517;27;20031;-71
2021/10/25 02:00:09;;;;;;;8.30;2.33;;;;;;;;;;5130742;27;20525;-72
2021/10/25 02:02:35;;;;;;;7.57;2.10;;;;;;;;;;5131667;27;20119;-72
2021/10/25 02:05:02;;;;;;;9.80;2.53;;;;;;;;;;5133454;27;20509;-72
2021/10/25 02:07:29;;;;;;;6.55;1.90;;;;;;;;;;5132410;27;20095;-72
2021/10/25 02:09:55;;;;;;;5.50;2.30;;;;;;;;;;5130893;27;20035;-73
2021/10/25 02:12:21;;;;;;;11.32;2.10;;;;;;;;;;5133415;27;20061;-72
2021/10/25 02:14:48;;;;;;;13.38;2.63;;;;;;;;;;5133358;27;20027;-72
2021/10/25 02:17:14;;;;;;;8.52;2.00;;;;;;;;;;5129536;27;20440;-72
2021/10/25 02:19:41;;;;;;;10.05;2.58;;;;;;;;;;5133499;27;20033;-72
2021/10/25 02:22:08;;;;;;;8.70;2.13;;;;;;;;;;5132829;27;20030;-72
2021/10/25 02:24:35;;;;;;;9.02;2.33;;;;;;;;;;5131522;27;20127;-72
2021/10/25 02:27:03;;;;;;;7.15;1.98;;;;;;;;;;5132092;27;20110;-71
2021/10/25 02:29:35;;;;;;;10.00;2.35;;;;;;;;;;5133323;27;20431;-72
2021/10/25 02:32:01;;;;;;;;;;;;;;;;;;5135997;27;20027;-72
2021/10/25 02:34:27;;;;;;;8.88;2.13;;;;;;;;;;5134808;27;20306;-72
2021/10/25 02:36:53;;;;;;;7.10;1.92;;;;;;;;;;5131336;27;20425;-71
2021/10/25 02:39:20;;;;;;;7.30;2.58;;;;;;;;;;5136646;27;20048;-72
2021/10/25 02:41:46;;;;;;;7.78;2.10;;;;;;;;;;5134038;27;20031;-72
2021/10/25 02:44:12;;;;;;;14.55;2.50;;;;;;;;;;5134283;27;20102;-72
2021/10/25 02:46:38;;;;;;;9.40;2.63;;;;;;;;;;5135811;27;20033;-71
2021/10/25 02:49:04;;;;;;;5.32;1.88;;;;;;;;;;5133399;27;20029;-72
2021/10/25 02:51:30;;;;;;;10.35;2.45;;;;;;;;;;5135164;27;20374;-71
2021/10/25 02:53:57;;;;;;;6.80;2.33;;;;;;;;;;5138456;27;20113;-72
2021/10/25 02:56:23;;;;;;;13.75;2.75;;;;;;;;;;5137443;27;20023;-72
2021/10/25 02:58:50;;;;;;;9.60;3.72;;;;;;;;;;5137953;27;20522;-71
2021/10/25 03:01:16;;;;;;;10.18;2.55;;;;;;;;;;5139339;27;20707;-71
2021/10/25 03:03:43;;;;;;;9.98;2.90;;;;;;;;;;5134271;27;20049;-72
2021/10/25 03:06:09;;;;;;;13.82;3.10;;;;;;;;;;5134226;27;20058;-72
2021/10/25 03:08:35;;;;;;;11.77;2.55;;;;;;;;;;5136189;27;20067;-71
2021/10/25 03:11:02;;;;;;;13.75;2.95;;;;;;;;;;5137989;27;20066;-72
2021/10/25 03:13:28;;;;;;;12.50;3.10;;;;;;;;;;5134832;27;20635;-71
2021/10/25 03:15:54;;;;;;;9.82;2.60;;;;;;;;;;5136344;27;20030;-72
2021/10/25 03:18:24;;;;;;;11.30;2.70;;;;;;;;;;5137404;27;20034;-71
2021/10/25 03:20:51;;;;;;;10.65;2.58;;;;;;;;;;5133655;27;20019;-71
2021/10/25 03:23:17;;;;;;;11.75;3.08;;;;;;;;;;5135658;27;20397;-72
2021/10/25 03:25:44;;;;;;;11.82;3.58;;;;;;;;;;5137487;27;20083;-71
2021/10/25 03:28:10;;;;;;;17.60;2.75;;;;;;;;;;5133329;27;20031;-71
2021/10/25 03:30:36;;;;;;;10.65;3.28;;;;;;;;;;5135857;27;20429;-72
2021/10/25 03:33:03;;;;;;;6.93;2.63;;;;;;;;;;5136702;27;20046;-71
2021/10/25 03:35:29;;;;;;;7.72;2.90;;;;;;;;;;5134374;27;20027;-71
2021/10/25 03:37:56;;;;;;;12.27;3.25;;;;;;;;;;5136555;27;20026;-71
2021/10/25 03:40:23;;;;;;;15.25;3.83;;;;;;;;;;5136346;27;20038;-72
2021/10/25 03:42:52;;;;;;;12.15;3.45;;;;;;;;;;5134060;27;20367;-72
2021/10/25 03:45:34;;;;;;;14.00;3.20;;;;;;;;;;5134515;27;20372;-72
2021/10/25 03:48:22;;;;;;;24.55;3.60;;;;;;;;;;5134473;27;20070;-72
2021/10/25 03:50:50;;;;;;;14.57;3.63;;;;;;;;;;5134792;27;20075;-72
2021/10/25 03:56:30;;;;;;;15.10;3.95;;;;;;;;;;5136173;27;20365;-71
2021/10/25 04:26:06;;;;;;;18.25;4.65;;;;;;;;;;5132707;27;20124;-72
2021/10/25 04:28:35;;;;;;;18.50;4.47;;;;;;;;;;5134181;27;20034;-72
2021/10/25 04:31:01;;;;;;;13.60;3.70;;;;;;;;;;5134075;27;20038;-72
2021/10/25 04:33:27;;;;;;;12.15;3.30;;;;;;;;;;5135988;27;20034;-72
2021/10/25 04:35:54;;;;;;;15.65;3.95;;;;;;;;;;5131211;27;20053;-72
2021/10/25 04:38:20;;;;;;;14.65;4.18;;;;;;;;;;5132221;27;20422;-72
2021/10/25 04:40:46;;;;;;;12.65;3.67;;;;;;;;;;5130463;27;20023;-72
2021/10/25 04:43:14;;;;;;;22.60;4.72;;;;;;;;;;5132853;27;20057;-72
2021/10/25 04:45:41;;;;;;;20.45;4.38;;;;;;;;;;5132319;27;20084;-72
2021/10/25 04:48:07;;;;;;;21.25;4.65;;;;;;;;;;5130151;27;20034;-72
2021/10/25 04:50:34;;;;;;;17.02;5.03;;;;;;;;;;5129230;27;20114;-72
2021/10/25 04:53:00;;;;;;;19.63;4.60;;;;;;;;;;5131740;27;20039;-72
2021/10/25 04:55:26;;;;;;;19.33;5.13;;;;;;;;;;5133098;27;20023;-71
2021/10/25 04:57:52;;;;;;;15.55;5.13;;;;;;;;;;5130046;27;20020;-72
2021/10/25 05:00:18;;;;;;;17.67;5.22;;;;;;;;;;5130534;27;20496;-72
2021/10/25 05:02:45;;;;;;;21.20;4.68;;;;;;;;;;5132659;27;20019;-72
2021/10/25 05:05:11;;;;;;;15.25;4.35;;;;;;;;;;5127682;27;20106;-72
2021/10/25 05:07:37;;;;;;;21.65;4.70;;;;;;;;;;5130785;27;20621;-72
2021/10/25 05:10:04;;;;;;;20.30;5.55;;;;;;;;;;5130213;27;20054;-72
2021/10/25 05:12:31;;;;;;;13.63;4.10;;;;;;;;;;5126590;27;20513;-72
2021/10/25 05:14:58;;;;;;;16.98;4.95;;;;;;;;;;5131357;27;20027;-72
2021/10/25 05:17:24;;;;;;;19.83;4.35;;;;;;;;;;5127875;27;20478;-72
2021/10/25 05:19:51;;;;;;;18.77;4.55;;;;;;;;;;5128085;27;20436;-72
2021/10/25 05:22:18;;;;;;;13.27;4.65;;;;;;;;;;5129340;27;20034;-72
2021/10/25 05:24:45;;;;;;;18.05;5.50;;;;;;;;;;5129541;27;20381;-72
2021/10/25 05:27:11;;;;;;;20.25;5.20;;;;;;;;;;5132691;27;20034;-72
2021/10/25 05:29:38;;;;;;;19.83;4.78;;;;;;;;;;5129770;27;20083;-72
2021/10/25 05:32:05;;;;;;;17.77;5.60;;;;;;;;;;5131901;27;20118;-72
2021/10/25 05:34:32;;;;;;;21.05;5.78;;;;;;;;;;5130093;27;20502;-72
2021/10/25 05:36:58;;;;;;;18.13;5.13;;;;;;;;;;5132261;27;20349;-72
2021/10/25 05:39:24;;;;;;;13.93;4.80;;;;;;;;;;5135881;27;20072;-71
2021/10/25 05:41:51;;;;;;;19.75;5.20;;;;;;;;;;5132501;27;20027;-71
2021/10/25 05:44:19;;;;;;;15.35;6.15;;;;;;;;;;5133322;27;20090;-72
2021/10/25 05:46:45;;;;;;;18.85;6.20;;;;;;;;;;5132351;27;20527;-72
2021/10/25 05:49:11;;;;;;;27.98;6.57;;;;;;;;;;5133008;27;20472;-72
2021/10/25 05:51:37;;;;;;;19.55;6.03;;;;;;;;;;5134598;27;20087;-71
2021/10/25 05:54:05;;;;;;;23.35;6.05;;;;;;;;;;5129921;27;20035;-72
2021/10/25 05:56:32;;;;;;;17.35;5.90;;;;;;;;;;5133086;27;20531;-71
2021/10/25 05:58:58;;;;;;;16.88;6.03;;;;;;;;;;5134411;27;20122;-72
2021/10/25 06:01:29;;;;;;;16.20;5.50;;;;;;;;;;5130879;27;20039;-72
2021/10/25 06:04:04;;;;;;;18.08;6.15;;;;;;;;;;5132414;27;20046;-72
2021/10/25 06:06:30;;;;;;;22.73;5.90;;;;;;;;;;5131908;27;20043;-72
2021/10/25 06:08:56;;;;;;;24.35;7.45;;;;;;;;;;5131216;27;20073;-71
2021/10/25 06:11:22;;;;;;;21.92;6.20;;;;;;;;;;5133878;27;20017;-72
2021/10/25 06:13:48;;;;;;;22.65;7.03;;;;;;;;;;5131708;27;20027;-72
2021/10/25 06:16:17;;;;;;;18.33;6.43;;;;;;;;;;5133179;27;20489;-72
2021/10/25 06:18:44;;;;;;;17.88;6.32;;;;;;;;;;5133608;27;20030;-71
2021/10/25 06:21:11;;;;;;;16.80;6.28;;;;;;;;;;5130000;27;20102;-72
2021/10/25 06:23:37;;;;;;;20.38;6.40;;;;;;;;;;5132805;27;20027;-72
2021/10/25 06:26:04;;;;;;;21.40;6.22;;;;;;;;;;5133036;27;20076;-71
2021/10/25 06:28:30;;;;;;;23.30;6.03;;;;;;;;;;5128375;27;20023;-72
2021/10/25 06:31:04;;;;;;;22.25;6.90;;;;;;;;;;5131843;27;20475;-72
2021/10/25 06:33:36;;;;;;;19.60;5.68;;;;;;;;;;5130656;27;20601;-71
2021/10/25 06:36:03;;;;;;;20.67;5.85;;;;;;;;;;5130717;27;20037;-72
2021/10/25 06:38:32;;;;;;;17.42;6.03;;;;;;;;;;5130578;27;20415;-71
2021/10/25 06:41:00;;;;;;;17.77;6.07;;;;;;;;;;5128579;27;20024;-71
2021/10/25 06:43:26;;;;;;;22.40;5.97;;;;;;;;;;5132512;27;20471;-72
2021/10/25 06:45:53;;;;;;;25.17;5.93;;;;;;;;;;5132759;27;20030;-72
2021/10/25 06:48:20;;;;;;;31.63;6.80;;;;;;;;;;5130985;27;20031;-72
2021/10/25 06:50:46;;;;;;;27.13;6.45;;;;;;;;;;5133348;27;20038;-72
2021/10/25 06:53:14;;;;;;;15.63;5.53;;;;;;;;;;5133096;27;20022;-74
2021/10/25 06:55:40;;;;;;;19.58;5.85;;;;;;;;;;5133011;27;20042;-74
2021/10/25 06:58:07;;;;;;;21.17;6.05;;;;;;;;;;5135027;27;20034;-73
2021/10/25 07:00:33;;;;;;;20.58;6.25;;;;;;;;;;5131602;27;20054;-72
2021/10/25 07:03:00;;;;;;;19.33;6.25;;;;;;;;;;5135440;27;20132;-72
2021/10/25 07:05:30;;;;;;;19.77;6.40;;;;;;;;;;5131535;27;20038;-72
2021/10/25 07:07:56;;;;;;;22.08;7.03;;;;;;;;;;5131667;27;20061;-72
2021/10/25 07:10:22;;;;;;;27.80;6.70;;;;;;;;;;5133625;27;20056;-73
2021/10/25 07:12:49;;;;;;;24.58;7.10;;;;;;;;;;5131778;27;20027;-72
2021/10/25 07:15:17;;;;;;;26.15;6.38;;;;;;;;;;5130813;27;20190;-72
2021/10/25 08:09:47;;;;;;;27.70;6.70;;;;;;;;;;5134824;27;20038;-74
2021/10/25 08:12:04;;;;;;;30.77;7.32;;;;;;;;;;5127667;27;20035;-74
2021/10/25 08:14:42;;;;;;;20.60;6.45;;;;;;;;;;5134169;27;20027;-73
2021/10/25 08:17:09;;;;;;;27.33;5.60;;;;;;;;;;5129516;27;20298;-73
2021/10/25 08:19:35;;;;;;;16.25;5.32;;;;;;;;;;5130004;27;20407;-73
2021/10/25 08:22:06;;;;;;;17.92;5.00;;;;;;;;;;5131590;27;20030;-74
2021/10/25 08:24:35;;;;;;;19.97;5.87;;;;;;;;;;5134344;27;20088;-73
2021/10/25 08:27:05;;;;;;;17.02;5.20;;;;;;;;;;5135744;27;20026;-74
2021/10/25 08:29:31;;;;;;;13.88;5.78;;;;;;;;;;5133083;27;20590;-73
2021/10/25 08:39:49;;;;;;;18.33;6.45;;;;;;;;;;5135671;27;20030;-73
2021/10/25 08:42:35;;;;;;;18.27;5.05;;;;;;;;;;5134518;27;20053;-73
2021/10/25 08:45:09;;;;;;;13.48;4.57;;;;;;;;;;5133462;27;20624;-73
2021/10/25 08:47:39;;;;;;;19.00;4.97;;;;;;;;;;5133013;27;20623;-73
2021/10/25 08:50:06;;;;;;;16.67;4.90;;;;;;;;;;5132913;27;20023;-73
2021/10/25 08:52:33;;;;;;;18.13;4.85;;;;;;;;;;5134848;27;20507;-73
2021/10/25 08:55:01;;;;;;;22.92;5.40;;;;;;;;;;5133617;27;20027;-73
2021/10/25 08:57:27;;;;;;;13.20;4.88;;;;;;;;;;5131287;27;20115;-73
2021/10/25 09:00:14;;;;;;;20.85;5.85;;;;;;;;;;5134893;27;20046;-73
2021/10/25 09:02:41;;;;;;;21.35;4.97;;;;;;;;;;5135141;27;20030;-73
2021/10/25 09:05:08;;;;;;;18.75;5.07;;;;;;;;;;5133545;27;20111;-73
2021/10/25 09:07:48;;;;;;;14.52;5.25;;;;;;;;;;5132675;27;20023;-73
2021/10/25 09:10:20;;;;;;;18.13;5.32;;;;;;;;;;5132102;27;20391;-73
2021/10/25 09:12:52;;;;;;;17.52;5.22;;;;;;;;;;5131744;27;20488;-73
2021/10/25 09:15:18;;;;;;;;;;;;;;;;;;5133565;27;20078;-74
2021/10/25 09:17:45;;;;;;;12.88;4.93;;;;;;;;;;5134442;27;19903;-73
2021/10/25 09:20:11;;;;;;;16.33;4.60;;;;;;;;;;5131933;27;20038;-73
2021/10/25 09:22:37;;;;;;;15.48;4.85;;;;;;;;;;5133480;27;20023;-74
2021/10/25 09:25:04;;;;;;;18.45;4.93;;;;;;;;;;5132571;27;20034;-73
2021/10/25 09:27:48;;;;;;;16.10;4.65;;;;;;;;;;5130588;27;20115;-73
2021/10/25 09:30:16;;;;;;;17.48;4.78;;;;;;;;;;5131519;27;20015;-73
2021/10/25 09:32:46;;;;;;;16.17;4.45;;;;;;;;;;5133810;27;20034;-73
2021/10/25 09:35:22;;;;;;;15.13;4.03;;;;;;;;;;5134421;27;20046;-72
2021/10/25 09:37:58;;;;;;;18.75;4.80;;;;;;;;;;5133146;27;20095;-74
2021/10/25 09:43:35;;;;;;;11.25;4.72;;;;;;;;;;5131542;27;20042;-73
2021/10/25 09:51:15;;;;;;;15.43;4.53;;;;;;;;;;5133260;27;20086;-73
2021/10/25 09:53:46;;;;;;;13.13;4.65;;;;;;;;;;5130966;27;20110;-73
2021/10/25 09:56:15;;;;;;;16.50;4.05;;;;;;;;;;5132751;27;20026;-73
2021/10/25 09:58:54;;;;;;;16.85;5.70;;;;;;;;;;5132515;27;20483;-73
2021/10/25 10:01:25;;;;;;;12.65;4.82;;;;;;;;;;5131398;27;20057;-73
2021/10/25 10:03:52;;;;;;;18.40;4.97;;;;;;;;;;5130960;27;20084;-73
2021/10/25 10:06:19;;;;;;;21.00;5.10;;;;;;;;;;5131623;27;20392;-73
2021/10/25 10:08:45;;;;;;;18.65;4.97;;;;;;;;;;5131720;27;20029;-73
2021/10/25 10:11:12;;;;;;;11.20;4.10;;;;;;;;;;5131115;27;20016;-73
2021/10/25 10:13:41;;;;;;;13.65;4.75;;;;;;;;;;5132985;27;20061;-74
2021/10/25 10:16:07;;;;;;;17.60;5.60;;;;;;;;;;5133243;27;20078;-73
2021/10/25 10:18:35;;;;;;;13.95;5.05;;;;;;;;;;5130874;27;20038;-73
2021/10/25 10:21:01;;;;;;;20.30;5.40;;;;;;;;;;5131711;27;20015;-73
2021/10/25 10:23:28;;;;;;;19.58;5.18;;;;;;;;;;5132644;27;20019;-73
2021/10/25 10:25:54;;;;;;;23.45;5.50;;;;;;;;;;5130601;27;20027;-74
2021/10/25 10:28:31;;;;;;;13.57;5.20;;;;;;;;;;5131705;27;20019;-74
2021/10/25 10:31:03;;;;;;;13.20;4.35;;;;;;;;;;5133908;27;20029;-73
2021/10/25 10:33:30;;;;;;;15.88;4.30;;;;;;;;;;5132055;27;20031;-73
2021/10/25 10:35:57;;;;;;;17.65;4.35;;;;;;;;;;5131184;27;20110;-74
2021/10/25 10:38:32;;;;;;;20.13;5.15;;;;;;;;;;5133564;27;20023;-73
2021/10/25 10:40:58;;;;;;;16.50;4.38;;;;;;;;;;5132619;27;20050;-73
2021/10/25 10:43:26;;;;;;;13.48;4.30;;;;;;;;;;5129127;27;20030;-74
2021/10/25 10:46:06;;;;;;;13.60;4.75;;;;;;;;;;5132478;27;20058;-73
2021/10/25 10:48:37;;;;;;;17.10;4.35;;;;;;;;;;5130282;27;20031;-73
2021/10/25 10:51:06;;;;;;;15.52;4.43;;;;;;;;;;5131499;27;20024;-74
2021/10/25 10:53:40;;;;;;;21.48;4.30;;;;;;;;;;5132199;27;20023;-73
2021/10/25 10:56:34;;;;;;;17.98;4.72;;;;;;;;;;5132600;27;20479;-73
2021/10/25 11:01:29;;;;;;;17.15;4.38;;;;;;;;;;5130536;27;20108;-74
2021/10/25 11:03:57;;;;;;;14.55;4.10;;;;;;;;;;5131641;27;20035;-74
2021/10/25 11:06:29;;;;;;;10.38;4.18;;;;;;;;;;5133372;27;20027;-73
2021/10/25 11:08:56;;;;;;;18.27;4.57;;;;;;;;;;5130073;27;20015;-73
2021/10/25 11:11:23;;;;;;;14.13;3.83;;;;;;;;;;5134152;27;20033;-74
2021/10/25 11:14:01;;;;;;;21.23;4.43;;;;;;;;;;5136331;27;20099;-73
2021/10/25 11:18:59;;;;;;;16.45;5.07;;;;;;;;;;5134625;27;20041;-73
2021/10/25 11:21:32;;;;;;;10.70;3.65;;;;;;;;;;5147895;27;20019;-73
2021/10/25 11:24:02;;;;;;;15.43;4.05;;;;;;;;;;5148689;27;20045;-74
2021/10/25 11:26:36;;;;;;;21.15;5.45;;;;;;;;;;5134173;27;20034;-72
2021/10/25 11:29:05;;;;;;;18.05;4.90;;;;;;;;;;5132122;27;20035;-72
2021/10/25 11:31:33;;;;;;;17.38;5.15;;;;;;;;;;5150177;27;20376;-75
2021/10/25 11:34:00;;;;;;;16.55;4.57;;;;;;;;;;5144975;27;20058;-72
2021/10/25 11:36:29;;;;;;;13.18;5.05;;;;;;;;;;5133855;27;20141;-72
2021/10/25 11:38:57;;;;;;;16.95;4.93;;;;;;;;;;5132880;27;20027;-73
2021/10/25 11:41:23;;;;;;;14.80;4.93;;;;;;;;;;5136831;27;20031;-73
2021/10/25 11:43:50;;;;;;;25.25;5.85;;;;;;;;;;5141405;27;20501;-73
2021/10/25 11:46:17;;;;;;;10.38;4.15;;;;;;;;;;5137615;27;20038;-73
2021/10/25 11:48:50;;;;;;;16.05;5.47;;;;;;;;;;5133109;27;20027;-72
2021/10/25 11:51:16;;;;;;;21.50;5.18;;;;;;;;;;5132724;27;20031;-72
2021/10/25 11:53:43;;;;;;;12.30;4.47;;;;;;;;;;5136246;27;20826;-71
2021/10/25 11:56:15;;;;;;;13.88;4.97;;;;;;;;;;5133785;27;20737;-72
2021/10/25 11:58:42;;;;;;;15.70;4.20;;;;;;;;;;5135839;27;20489;-74
2021/10/25 12:01:13;;;;;;;21.67;5.50;;;;;;;;;;5138120;27;20035;-75
2021/10/25 12:03:40;;;;;;;16.70;4.97;;;;;;;;;;5137215;27;20043;-75
2021/10/25 12:06:13;;;;;;;20.45;4.85;;;;;;;;;;5128304;27;20606;-74
2021/10/25 12:08:39;;;;;;;18.63;4.88;;;;;;;;;;5134583;27;20034;-75
2021/10/25 12:11:05;;;;;;;25.35;5.68;;;;;;;;;;5134029;27;20029;-75
2021/10/25 12:13:32;;;;;;;12.23;5.30;;;;;;;;;;5134254;27;20037;-75
2021/10/25 12:16:01;;;;;;;13.90;4.85;;;;;;;;;;5129481;27;20050;-75
2021/10/25 12:18:27;;;;;;;18.65;6.03;;;;;;;;;;5131525;27;20026;-74
2021/10/25 12:20:54;;;;;;;14.73;5.70;;;;;;;;;;5133058;27;20094;-73
2021/10/25 12:23:21;;;;;;;30.58;7.75;;;;;;;;;;5128927;27;20031;-73
2021/10/25 12:26:00;;;;;;;19.60;5.47;;;;;;;;;;5130845;27;20035;-74
2021/10/25 12:28:27;;;;;;;10.70;5.38;;;;;;;;;;5127990;27;20380;-73
2021/10/25 12:31:10;;;;;;;22.40;5.93;;;;;;;;;;5131080;27;20121;-74
2021/10/25 12:33:38;;;;;;;19.88;6.13;;;;;;;;;;5130516;27;20484;-73
2021/10/25 12:36:11;;;;;;;14.18;5.60;;;;;;;;;;5130685;27;20979;-74
2021/10/25 12:38:42;;;;;;;19.92;6.20;;;;;;;;;;5129723;27;20479;-74
2021/10/25 12:41:08;;;;;;;17.27;5.57;;;;;;;;;;5129297;27;20024;-74
2021/10/25 12:43:40;;;;;;;18.17;5.40;;;;;;;;;;5130375;27;20510;-74
2021/10/25 12:46:09;;;;;;;17.30;5.65;;;;;;;;;;5132106;27;20102;-74
2021/10/25 12:48:47;;;;;;;14.05;5.30;;;;;;;;;;5130022;27;20034;-74
2021/10/25 12:51:13;;;;;;;19.92;7.00;;;;;;;;;;5129009;27;20391;-74
2021/10/25 12:53:43;;;;;;;19.85;6.53;;;;;;;;;;5133176;27;20527;-74
2021/10/25 12:56:09;;;;;;;16.67;6.28;;;;;;;;;;5131280;27;20299;-74
2021/10/25 12:58:36;;;;;;;15.25;6.40;;;;;;;;;;5130451;27;20073;-74
2021/10/25 13:01:09;;;;;;;15.60;5.72;;;;;;;;;;5132861;27;20141;-73
2021/10/25 13:03:35;;;;;;;19.45;6.55;;;;;;;;;;5131749;27;20255;-74
2021/10/25 13:06:08;;;;;;;18.02;6.50;;;;;;;;;;5133529;27;20034;-73
2021/10/25 13:08:35;;;;;;;18.15;6.95;;;;;;;;;;5131908;27;20104;-74
2021/10/25 13:11:02;;;;;;;17.10;6.90;;;;;;;;;;5131181;27;20079;-74
2021/10/25 13:13:35;;;;;;;28.60;7.50;;;;;;;;;;5130145;27;20027;-74
2021/10/25 13:16:01;;;;;;;19.67;7.15;;;;;;;;;;5133685;27;20027;-74
2021/10/25 13:18:28;;;;;;;22.05;7.65;;;;;;;;;;5131067;27;20079;-74
2021/10/25 13:20:54;;;;;;;14.90;6.57;;;;;;;;;;5128292;27;20415;-74
2021/10/25 13:23:24;;;;;;;21.83;7.50;;;;;;;;;;5132290;27;20098;-74
2021/10/25 13:25:51;;;;;;;17.15;6.90;;;;;;;;;;5133077;27;20031;-74
2021/10/25 13:28:17;;;;;;;20.92;7.07;;;;;;;;;;5131555;27;20475;-74
2021/10/25 13:30:44;;;;;;;22.23;6.57;;;;;;;;;;5132112;27;20205;-74
2021/10/25 13:33:10;;;;;;;20.92;6.63;;;;;;;;;;5129028;27;20427;-74
2021/10/25 13:35:36;;;;;;;15.85;6.32;;;;;;;;;;5129202;27;20070;-74
2021/10/25 13:38:05;;;;;;;18.08;6.50;;;;;;;;;;5128559;27;20053;-74
2021/10/25 13:40:33;;;;;;;14.80;6.10;;;;;;;;;;5131349;27;20572;-74
2021/10/25 13:43:01;;;;;;;19.00;5.80;;;;;;;;;;5127713;27;20494;-74
2021/10/25 13:45:28;;;;;;;16.85;6.45;;;;;;;;;;5128070;27;20043;-74
2021/10/25 13:47:54;;;;;;;12.35;6.20;;;;;;;;;;5128817;27;20073;-74
2021/10/25 13:50:23;;;;;;;19.98;6.72;;;;;;;;;;5131388;27;20066;-74
2021/10/25 13:52:49;;;;;;;19.85;6.65;;;;;;;;;;5131047;27;20034;-74
2021/10/25 13:55:16;;;;;;;20.48;6.38;;;;;;;;;;5126966;27;20025;-74
2021/10/25 13:57:44;;;;;;;16.50;5.93;;;;;;;;;;5129481;27;20487;-74
2021/10/25 14:00:11;;;;;;;20.02;6.78;;;;;;;;;;5130020;27;20589;-74
2021/10/25 14:02:39;;;;;;;19.27;6.32;;;;;;;;;;5131370;27;20095;-74
2021/10/25 14:05:06;;;;;;;16.98;5.75;;;;;;;;;;5129875;27;20410;-74
2021/10/25 14:07:34;;;;;;;17.35;6.32;;;;;;;;;;5129790;27;20027;-74
2021/10/25 14:10:14;;;;;;;21.73;6.88;;;;;;;;;;5130211;27;20026;-74
2021/10/25 14:12:41;;;;;;;19.95;6.40;;;;;;;;;;5130980;27;20023;-74
2021/10/25 14:17:44;;;;;;;22.63;7.18;;;;;;;;;;5127529;27;20164;-74
2021/10/25 14:20:10;;;;;;;20.65;6.10;;;;;;;;;;5132048;27;20511;-74
2021/10/25 14:22:37;;;;;;;16.33;5.82;;;;;;;;;;5131052;27;20104;-74
2021/10/25 14:25:03;;;;;;;19.50;6.75;;;;;;;;;;5126730;27;20037;-74
2021/10/25 14:27:33;;;;;;;23.73;7.28;;;;;;;;;;5126638;27;20026;-73
2021/10/25 14:29:59;;;;;;;19.77;6.05;;;;;;;;;;5127437;27;20061;-74
2021/10/25 14:32:26;;;;;;;19.02;6.20;;;;;;;;;;5130741;27;20019;-74
2021/10/25 14:34:52;;;;;;;20.88;6.57;;;;;;;;;;5130239;27;20027;-73
2021/10/25 14:37:21;;;;;;;17.85;6.57;;;;;;;;;;5130714;27;20046;-74
2021/10/25 14:39:48;;;;;;;18.65;6.75;;;;;;;;;;5130751;27;20754;-73
2021/10/25 14:42:24;;;;;;;17.25;6.68;;;;;;;;;;5126162;27;20087;-74
2021/10/25 14:45:03;;;;;;;18.30;5.90;;;;;;;;;;5129242;27;20039;-74
2021/10/25 14:55:56;;;;;;;14.52;5.50;;;;;;;;;;5133219;27;20095;-74
2021/10/25 14:58:23;;;;;;;16.17;5.57;;;;;;;;;;5129820;27;20554;-74
2021/10/25 15:00:49;;;;;;;15.73;5.47;;;;;;;;;;5134285;27;20162;-73
2021/10/25 15:03:16;;;;;;;22.05;5.85;;;;;;;;;;5134240;27;20019;-74
2021/10/25 15:05:42;;;;;;;14.18;5.45;;;;;;;;;;5130776;27;20469;-74
2021/10/25 15:08:08;;;;;;;15.27;5.00;;;;;;;;;;5134658;27;20019;-74
2021/10/25 15:10:36;;;;;;;8.30;3.80;;;;;;;;;;5133970;27;20031;-73
2021/10/25 15:13:02;;;;;;;10.40;4.72;;;;;;;;;;5134657;27;20027;-74
2021/10/25 15:15:29;;;;;;;11.45;4.60;;;;;;;;;;5137292;27;20015;-74
2021/10/25 15:17:57;;;;;;;17.77;5.30;;;;;;;;;;5138507;27;20420;-74
2021/10/25 15:20:23;;;;;;;15.80;5.05;;;;;;;;;;5140486;27;20018;-74
2021/10/25 15:22:51;;;;;;;16.38;4.57;;;;;;;;;;5139223;27;20030;-74
2021/10/25 15:25:19;;;;;;;15.43;4.78;;;;;;;;;;5139867;27;20395;-74
2021/10/25 15:27:45;;;;;;;15.25;5.13;;;;;;;;;;5137417;27;20619;-73
2021/10/25 15:30:13;;;;;;;13.30;4.63;;;;;;;;;;5136623;27;20015;-73
2021/10/25 15:32:39;;;;;;;7.90;4.32;;;;;;;;;;5138659;27;20022;-74
2021/10/25 15:35:06;;;;;;;14.15;4.75;;;;;;;;;;5135944;27;20031;-74
2021/10/25 15:37:33;;;;;;;18.05;4.47;;;;;;;;;;5129519;27;20398;-74
2021/10/25 15:39:59;;;;;;;18.15;4.68;;;;;;;;;;5138624;27;20033;-74
2021/10/25 15:42:26;;;;;;;12.68;4.65;;;;;;;;;;5136613;27;20506;-73
2021/10/25 15:44:52;;;;;;;11.38;4.38;;;;;;;;;;5133011;27;20041;-74
2021/10/25 15:47:21;;;;;;;11.55;4.22;;;;;;;;;;5140505;27;20088;-73
2021/10/25 15:49:48;;;;;;;14.65;4.60;;;;;;;;;;5133367;27;20027;-74
2021/10/25 15:52:16;;;;;;;14.60;4.50;;;;;;;;;;5135329;27;20110;-74
2021/10/25 15:54:42;;;;;;;14.10;4.43;;;;;;;;;;5136736;27;20071;-74
2021/10/25 15:57:09;;;;;;;11.02;4.65;;;;;;;;;;5140739;27;20136;-73
2021/10/25 15:59:35;;;;;;;14.55;4.45;;;;;;;;;;5136135;27;20113;-74
2021/10/25 16:02:03;;;;;;;11.27;4.55;;;;;;;;;;5134522;27;20118;-74
2021/10/25 16:04:29;;;;;;;17.30;5.65;;;;;;;;;;5137206;27;20245;-73
2021/10/25 16:06:56;;;;;;;17.00;4.72;;;;;;;;;;5132511;27;20023;-74
2021/10/25 16:09:22;;;;;;;12.15;4.70;;;;;;;;;;5132681;27;20031;-74
2021/10/25 16:11:50;;;;;;;16.38;5.05;;;;;;;;;;5133027;27;20017;-73
2021/10/25 16:14:16;;;;;;;14.85;5.25;;;;;;;;;;5135454;27;20564;-74
2021/10/25 16:16:42;;;;;;;18.98;5.75;;;;;;;;;;5133395;27;20102;-73
2021/10/25 16:19:08;;;;;;;13.38;5.03;;;;;;;;;;5130866;27;20037;-73
2021/10/25 16:21:35;;;;;;;15.38;6.03;;;;;;;;;;5137007;27;20030;-74
2021/10/25 16:24:01;;;;;;;19.88;6.32;;;;;;;;;;5138255;27;20033;-73
2021/10/25 16:26:27;;;;;;;17.08;6.13;;;;;;;;;;5138625;27;20015;-74
2021/10/25 16:28:54;;;;;;;14.25;6.63;;;;;;;;;;5133145;27;20035;-74
2021/10/25 16:31:20;;;;;;;16.80;6.78;;;;;;;;;;5132415;27;20448;-73